createdAt,value
2018-08-03T00:00:41.565Z,99.90
2018-08-03T00:05:39.993Z,99.90
2018-08-03T00:08:09.714Z,99.90
2018-08-03T00:10:39.269Z,99.90
2018-08-03T00:13:10.527Z,99.90
2018-08-03T00:15:40.144Z,99.90
2018-08-03T00:20:38.675Z,99.90
2018-08-03T00:23:08.152Z,99.90
2018-08-03T00:25:38.547Z,99.90
2018-08-03T00:28:08.044Z,99.90
2018-08-03T00:30:38.065Z,99.90
2018-08-03T00:33:07.548Z,99.90
2018-08-03T00:35:37.045Z,99.90
2018-08-03T00:38:06.560Z,99.90
2018-08-03T00:40:35.971Z,99.90
2018-08-03T00:43:07.796Z,99.90
2018-08-03T00:45:37.404Z,99.90
2018-08-03T00:48:07.220Z,99.90
2018-08-03T00:50:36.665Z,99.90
2018-08-03T00:53:06.222Z,99.90
2018-08-03T00:55:35.728Z,99.90
2018-08-03T00:58:05.823Z,99.90
2018-08-03T01:00:35.336Z,99.90
2018-08-03T01:03:04.837Z,99.90
2018-08-03T01:08:04.355Z,99.90
2018-08-03T01:10:33.891Z,99.90
2018-08-03T01:13:04.118Z,99.90
2018-08-03T01:15:33.691Z,99.90
2018-08-03T01:18:03.407Z,99.90
2018-08-03T01:23:02.041Z,99.90
2018-08-03T01:25:38.696Z,99.90
2018-08-03T01:28:08.774Z,99.90
2018-08-03T01:30:38.241Z,99.90
2018-08-03T01:33:08.293Z,99.90
2018-08-03T01:35:37.792Z,99.90
2018-08-03T01:38:07.289Z,99.90
2018-08-03T01:40:36.753Z,99.90
2018-08-03T01:43:06.483Z,99.90
2018-08-03T01:45:36.273Z,99.90
2018-08-03T01:48:05.750Z,99.90
2018-08-03T01:50:35.262Z,99.90
2018-08-03T01:53:04.911Z,99.90
2018-08-03T01:55:34.366Z,99.90
2018-08-03T01:58:03.964Z,99.90
2018-08-03T02:00:33.539Z,99.90
2018-08-03T02:03:03.029Z,99.90
2018-08-03T02:05:32.447Z,99.90
2018-08-03T02:08:01.934Z,99.90
2018-08-03T02:10:31.543Z,99.90
2018-08-03T02:13:01.076Z,99.90
2018-08-03T02:15:30.855Z,99.90
2018-08-03T02:18:00.365Z,99.90
2018-08-03T02:20:30.050Z,99.90
2018-08-03T02:23:00.250Z,99.90
2018-08-03T02:25:29.704Z,99.90
2018-08-03T02:27:59.557Z,99.90
2018-08-03T02:30:29.138Z,99.90
2018-08-03T02:32:58.645Z,99.90
2018-08-03T02:35:28.259Z,99.90
2018-08-03T02:37:57.816Z,99.90
2018-08-03T02:40:27.451Z,99.90
2018-08-03T02:42:56.947Z,99.90
2018-08-03T02:45:26.519Z,99.90
2018-08-03T02:47:56.616Z,99.90
2018-08-03T02:50:26.110Z,99.90
2018-08-03T02:52:55.608Z,99.90
2018-08-03T02:55:26.000Z,99.90
2018-08-03T02:57:55.461Z,99.90
2018-08-03T03:00:25.197Z,99.90
2018-08-03T03:02:54.629Z,99.90
2018-08-03T03:05:24.199Z,99.90
2018-08-03T03:07:53.723Z,99.90
2018-08-03T03:10:23.399Z,99.90
2018-08-03T03:15:22.002Z,99.90
2018-08-03T03:17:51.547Z,99.90
2018-08-03T03:20:20.984Z,99.90
2018-08-03T03:22:50.625Z,99.90
2018-08-03T03:25:20.257Z,99.90
2018-08-03T03:27:49.718Z,99.90
2018-08-03T03:30:19.253Z,99.90
2018-08-03T03:32:48.940Z,99.90
2018-08-03T03:35:18.680Z,99.90
2018-08-03T03:37:48.288Z,99.90
2018-08-03T03:40:17.744Z,99.90
2018-08-03T03:42:47.231Z,99.90
2018-08-03T03:45:16.647Z,99.90
2018-08-03T03:47:47.345Z,99.90
2018-08-03T03:50:17.010Z,99.90
2018-08-03T03:52:53.461Z,99.90
2018-08-03T03:55:23.115Z,99.90
2018-08-03T03:57:53.434Z,99.90
2018-08-03T04:00:30.529Z,99.90
2018-08-03T04:03:00.157Z,99.90
2018-08-03T04:05:29.658Z,99.90
2018-08-03T04:08:00.662Z,99.90
2018-08-03T04:10:30.151Z,99.90
2018-08-03T04:13:00.123Z,99.90
2018-08-03T04:15:29.784Z,99.90
2018-08-03T04:18:00.321Z,99.90
2018-08-03T04:20:29.820Z,99.90
2018-08-03T04:22:59.383Z,99.90
2018-08-03T04:25:29.963Z,99.90
2018-08-03T04:27:59.442Z,99.90
2018-08-03T04:30:29.176Z,99.90
2018-08-03T04:32:58.849Z,99.90
2018-08-03T04:35:28.431Z,99.90
2018-08-03T04:37:57.932Z,99.90
2018-08-03T04:40:27.466Z,99.90
2018-08-03T04:42:56.953Z,99.90
2018-08-03T04:45:26.453Z,99.90
2018-08-03T04:47:56.368Z,99.90
2018-08-03T04:50:26.960Z,99.90
2018-08-03T04:52:56.493Z,99.90
2018-08-03T04:55:32.136Z,99.90
2018-08-03T04:58:03.037Z,99.90
2018-08-03T05:00:34.524Z,99.90
2018-08-03T05:03:04.858Z,99.90
2018-08-03T05:08:04.970Z,99.90
2018-08-03T05:10:35.897Z,99.90
2018-08-03T05:13:06.693Z,99.90
2018-08-03T05:15:36.244Z,99.90
2018-08-03T05:18:05.796Z,99.90
2018-08-03T05:20:36.201Z,99.90
2018-08-03T05:23:06.940Z,99.90
2018-08-03T05:25:36.596Z,99.90
2018-08-03T05:28:06.369Z,99.90
2018-08-03T05:30:36.026Z,99.90
2018-08-03T05:33:06.208Z,99.90
2018-08-03T05:35:37.102Z,99.90
2018-08-03T05:38:06.794Z,99.90
2018-08-03T05:40:36.523Z,99.90
2018-08-03T05:43:05.916Z,99.90
2018-08-03T05:45:35.629Z,99.90
2018-08-03T05:48:05.237Z,99.90
2018-08-03T05:50:34.940Z,99.90
2018-08-03T05:53:06.002Z,99.90
2018-08-03T05:55:35.666Z,99.90
2018-08-03T05:58:05.561Z,99.90
2018-08-03T06:00:35.164Z,99.90
2018-08-03T06:03:04.809Z,99.90
2018-08-03T06:05:34.389Z,99.90
2018-08-03T06:08:08.215Z,99.90
2018-08-03T06:10:37.748Z,99.90
2018-08-03T06:13:07.392Z,99.90
2018-08-03T06:15:37.022Z,99.90
2018-08-03T06:18:06.847Z,99.90
2018-08-03T06:20:37.909Z,99.90
2018-08-03T06:23:07.530Z,99.90
2018-08-03T06:25:39.111Z,99.90
2018-08-03T06:28:08.664Z,99.90
2018-08-03T06:30:42.497Z,99.90
2018-08-03T06:33:12.770Z,99.90
2018-08-03T06:35:42.799Z,99.90
2018-08-03T06:38:12.524Z,99.90
2018-08-03T06:40:42.870Z,99.90
2018-08-03T06:43:12.435Z,99.90
2018-08-03T06:45:42.864Z,99.90
2018-08-03T06:48:18.828Z,99.90
2018-08-03T06:50:49.052Z,99.90
2018-08-03T06:53:18.786Z,99.90
2018-08-03T06:55:48.289Z,99.90
2018-08-03T06:58:17.779Z,99.90
2018-08-03T07:00:47.294Z,99.90
2018-08-03T07:03:17.016Z,99.90
2018-08-03T07:05:46.595Z,99.90
2018-08-03T07:08:16.144Z,99.90
2018-08-03T07:10:46.098Z,99.90
2018-08-03T07:13:15.626Z,99.90
2018-08-03T07:15:45.280Z,99.90
2018-08-03T07:18:14.875Z,99.90
2018-08-03T07:20:44.524Z,99.90
2018-08-03T07:23:14.011Z,99.90
2018-08-03T07:25:43.545Z,99.90
2018-08-03T07:28:14.491Z,99.90
2018-08-03T07:30:44.243Z,99.90
2018-08-03T07:33:14.374Z,99.90
2018-08-03T07:35:44.127Z,99.90
2018-08-03T07:38:13.719Z,99.90
2018-08-03T07:40:43.897Z,99.90
2018-08-03T07:43:14.343Z,99.90
2018-08-03T07:45:44.056Z,99.90
2018-08-03T07:48:13.602Z,99.90
2018-08-03T07:50:43.576Z,99.90
2018-08-03T07:53:14.181Z,99.90
2018-08-03T07:55:43.978Z,99.90
2018-08-03T07:58:13.747Z,99.90
2018-08-03T08:00:43.737Z,99.90
2018-08-03T08:03:15.374Z,99.90
2018-08-03T08:05:45.227Z,99.90
2018-08-03T08:08:15.356Z,99.90
2018-08-03T08:10:45.552Z,99.90
2018-08-03T08:13:15.913Z,99.90
2018-08-03T08:15:45.656Z,99.90
2018-08-03T08:18:15.821Z,99.90
2018-08-03T08:20:46.105Z,99.90
2018-08-03T08:23:16.259Z,99.90
2018-08-03T08:25:46.426Z,99.90
2018-08-03T08:28:16.275Z,99.90
2018-08-03T08:30:47.304Z,99.90
2018-08-03T08:33:17.481Z,99.90
2018-08-03T08:35:47.548Z,99.90
2018-08-03T08:40:46.970Z,99.90
2018-08-03T08:43:16.880Z,99.90
2018-08-03T08:45:47.433Z,99.90
2018-08-03T08:48:17.814Z,99.90
2018-08-03T08:50:47.990Z,99.90
2018-08-03T08:53:18.400Z,99.90
2018-08-03T08:55:48.405Z,99.90
2018-08-03T08:58:18.836Z,99.90
2018-08-03T09:00:49.137Z,99.90
2018-08-03T09:03:21.221Z,99.90
2018-08-03T09:05:50.883Z,99.90
2018-08-03T09:08:20.536Z,99.90
2018-08-03T09:10:51.133Z,99.90
2018-08-03T09:13:22.388Z,99.90
2018-08-03T09:15:52.331Z,99.90
2018-08-03T09:18:22.247Z,99.90
2018-08-03T09:20:53.317Z,99.90
2018-08-03T09:23:23.478Z,99.90
2018-08-03T09:25:53.627Z,99.90
2018-08-03T09:28:23.496Z,99.90
2018-08-03T09:30:53.816Z,99.90
2018-08-03T09:33:23.927Z,99.90
2018-08-03T09:35:53.592Z,99.90
2018-08-03T09:38:24.066Z,99.90
2018-08-03T09:40:54.179Z,99.90
2018-08-03T09:43:23.831Z,99.90
2018-08-03T09:45:53.483Z,99.90
2018-08-03T09:48:23.697Z,99.90
2018-08-03T09:50:53.859Z,99.90
2018-08-03T09:53:24.185Z,99.90
2018-08-03T09:55:54.128Z,99.90
2018-08-03T09:58:24.486Z,99.90
2018-08-03T10:00:57.979Z,99.90
2018-08-03T10:03:28.220Z,99.90
2018-08-03T10:05:57.936Z,99.90
2018-08-03T10:08:28.046Z,99.90
2018-08-03T10:10:59.147Z,99.90
2018-08-03T10:13:30.082Z,99.90
2018-08-03T10:16:00.218Z,99.90
2018-08-03T10:18:30.375Z,99.90
2018-08-03T10:21:01.184Z,99.90
2018-08-03T10:23:30.994Z,99.90
2018-08-03T10:26:00.708Z,99.90
2018-08-03T10:28:30.970Z,99.90
2018-08-03T10:31:00.702Z,99.90
2018-08-03T10:33:31.875Z,99.90
2018-08-03T10:36:01.731Z,99.90
2018-08-03T10:38:31.950Z,99.90
2018-08-03T10:41:02.935Z,99.20
2018-08-03T10:43:32.826Z,98.70
2018-08-03T10:46:02.676Z,96.90
2018-08-03T10:48:32.849Z,97.40
2018-08-03T10:51:02.960Z,95.30
2018-08-03T10:53:33.633Z,96.80
2018-08-03T10:56:04.066Z,96.70
2018-08-03T10:58:34.249Z,97.00
2018-08-03T11:01:03.784Z,96.40
2018-08-03T11:03:33.676Z,94.90
2018-08-03T11:06:03.465Z,95.40
2018-08-03T11:08:33.816Z,95.30
2018-08-03T11:11:03.774Z,96.30
2018-08-03T11:13:33.871Z,95.30
2018-08-03T11:16:03.458Z,94.50
2018-08-03T11:18:33.536Z,94.40
2018-08-03T11:21:04.014Z,93.70
2018-08-03T11:23:34.613Z,93.70
2018-08-03T11:26:04.687Z,93.80
2018-08-03T11:28:34.873Z,94.00
2018-08-03T11:31:04.976Z,94.10
2018-08-03T11:33:34.521Z,95.10
2018-08-03T11:36:04.130Z,94.30
2018-08-03T11:38:33.584Z,94.60
2018-08-03T11:41:03.827Z,94.00
2018-08-03T11:43:34.180Z,92.90
2018-08-03T11:46:03.754Z,91.10
2018-08-03T11:48:33.352Z,91.00
2018-08-03T11:51:03.226Z,91.70
2018-08-03T11:53:32.750Z,92.30
2018-08-03T11:56:02.210Z,90.80
2018-08-03T11:58:31.762Z,88.50
2018-08-03T12:01:02.030Z,91.10
2018-08-03T12:03:31.765Z,90.50
2018-08-03T12:06:01.959Z,91.20
2018-08-03T12:08:31.418Z,87.60
2018-08-03T12:11:01.035Z,86.60
2018-08-03T12:13:30.598Z,86.60
2018-08-03T12:16:00.373Z,89.80
2018-08-03T12:18:29.855Z,91.00
2018-08-03T12:20:59.295Z,88.80
2018-08-03T12:23:28.877Z,87.40
2018-08-03T12:25:58.400Z,84.60
2018-08-03T12:28:28.280Z,84.20
2018-08-03T12:30:57.794Z,84.40
2018-08-03T12:33:27.282Z,83.40
2018-08-03T12:35:56.805Z,83.90
2018-08-03T12:38:26.316Z,84.20
2018-08-03T12:40:55.968Z,83.10
2018-08-03T12:43:25.584Z,83.50
2018-08-03T12:45:55.137Z,85.60
2018-08-03T12:48:24.625Z,82.40
2018-08-03T12:50:54.053Z,84.60
2018-08-03T12:53:23.643Z,86.10
2018-08-03T12:55:53.247Z,85.60
2018-08-03T12:58:22.754Z,84.30
2018-08-03T13:00:52.158Z,84.40
2018-08-03T13:03:21.535Z,84.10
2018-08-03T13:05:51.044Z,81.90
2018-08-03T13:08:20.676Z,79.60
2018-08-03T13:10:50.080Z,79.50
2018-08-03T13:13:19.571Z,76.60
2018-08-03T13:15:49.086Z,76.80
2018-08-03T13:18:18.750Z,76.10
2018-08-03T13:20:48.152Z,75.60
2018-08-03T13:23:18.060Z,75.30
2018-08-03T13:25:47.502Z,74.80
2018-08-03T13:28:17.775Z,75.70
2018-08-03T13:30:47.354Z,75.90
2018-08-03T13:33:16.966Z,78.80
2018-08-03T13:35:47.073Z,79.10
2018-08-03T13:38:17.363Z,79.00
2018-08-03T13:40:47.985Z,80.50
2018-08-03T13:43:17.518Z,81.00
2018-08-03T13:45:46.975Z,82.60
2018-08-03T13:48:17.349Z,83.90
2018-08-03T13:50:47.448Z,83.50
2018-08-03T13:53:19.261Z,78.80
2018-08-03T13:55:50.500Z,76.70
2018-08-03T13:58:20.641Z,76.10
2018-08-03T14:00:52.440Z,76.90
2018-08-03T14:03:22.875Z,77.60
2018-08-03T14:05:52.889Z,76.50
2018-08-03T14:08:23.780Z,75.50
2018-08-03T14:10:54.823Z,78.00
2018-08-03T14:13:25.951Z,78.60
2018-08-03T14:15:57.740Z,79.70
2018-08-03T14:18:29.100Z,78.80
2018-08-03T14:20:59.165Z,80.20
2018-08-03T14:23:29.243Z,78.70
2018-08-03T14:26:00.135Z,79.50
2018-08-03T14:28:31.030Z,77.30
2018-08-03T14:31:01.072Z,76.70
2018-08-03T14:33:31.143Z,75.30
2018-08-03T14:36:01.141Z,74.70
2018-08-03T14:38:31.352Z,73.90
2018-08-03T14:41:01.626Z,75.40
2018-08-03T14:43:31.809Z,75.30
2018-08-03T14:46:01.588Z,75.40
2018-08-03T14:48:32.105Z,73.50
2018-08-03T14:51:08.450Z,74.50
2018-08-03T14:53:38.841Z,72.10
2018-08-03T14:56:08.969Z,73.10
2018-08-03T14:58:40.526Z,73.00
2018-08-03T15:01:11.149Z,73.00
2018-08-03T15:03:40.788Z,73.40
2018-08-03T15:06:10.286Z,73.40
2018-08-03T15:08:39.702Z,72.10
2018-08-03T15:11:09.345Z,72.70
2018-08-03T15:13:38.860Z,73.10
2018-08-03T15:16:08.513Z,72.80
2018-08-03T15:18:38.517Z,73.30
2018-08-03T15:21:08.168Z,73.30
2018-08-03T15:23:37.738Z,74.10
2018-08-03T15:26:07.626Z,73.20
2018-08-03T15:28:37.267Z,72.20
2018-08-03T15:31:06.836Z,72.60
2018-08-03T15:33:36.341Z,72.70
2018-08-03T15:36:05.833Z,72.80
2018-08-03T15:38:35.279Z,72.90
2018-08-03T15:41:04.786Z,72.90
2018-08-03T15:43:34.229Z,73.90
2018-08-03T15:46:03.813Z,72.60
2018-08-03T15:48:33.253Z,72.80
2018-08-03T15:51:03.449Z,73.40
2018-08-03T15:53:33.225Z,73.40
2018-08-03T15:56:02.772Z,74.00
2018-08-03T15:58:32.830Z,73.30
2018-08-03T16:01:02.539Z,72.70
2018-08-03T16:03:33.129Z,74.30
2018-08-03T16:06:02.704Z,72.60
2018-08-03T16:08:42.832Z,73.40
2018-08-03T16:11:20.376Z,73.20
2018-08-03T16:13:59.333Z,73.90
2018-08-03T16:16:38.719Z,73.90
2018-08-03T16:19:15.281Z,74.50
2018-08-03T16:21:53.021Z,74.60
2018-08-03T16:24:33.558Z,75.30
2018-08-03T16:27:12.092Z,74.50
2018-08-03T16:29:52.157Z,73.90
2018-08-03T16:32:30.250Z,73.00
2018-08-03T16:35:11.227Z,74.20
2018-08-03T16:37:49.480Z,75.60
2018-08-03T16:40:29.344Z,76.00
2018-08-03T16:43:05.278Z,77.70
2018-08-03T16:45:43.326Z,80.00
2018-08-03T16:48:16.457Z,80.40
2018-08-03T16:50:57.584Z,82.60
2018-08-03T16:53:36.800Z,83.60
2018-08-03T16:56:11.598Z,85.10
2018-08-03T16:58:44.862Z,85.30
2018-08-03T17:03:54.344Z,86.80
2018-08-03T17:06:28.308Z,87.00
2018-08-03T17:09:08.707Z,87.60
2018-08-03T17:11:47.034Z,87.70
2018-08-03T17:14:24.266Z,87.30
2018-08-03T17:16:59.570Z,87.60
2018-08-03T17:19:31.813Z,87.90
2018-08-03T17:22:04.498Z,88.30
2018-08-03T17:24:36.879Z,88.60
2018-08-03T17:27:10.380Z,89.10
2018-08-03T17:29:43.515Z,88.60
2018-08-03T17:32:16.994Z,89.00
2018-08-03T17:34:49.983Z,89.20
2018-08-03T17:37:20.310Z,89.30
2018-08-03T17:42:24.360Z,90.00
2018-08-03T17:44:57.862Z,90.10
2018-08-03T17:47:27.790Z,90.10
2018-08-03T17:49:57.330Z,90.10
2018-08-03T17:52:27.104Z,90.50
2018-08-03T17:55:00.377Z,90.30
2018-08-03T17:57:34.773Z,90.50
2018-08-03T18:00:08.003Z,90.70
2018-08-03T18:02:40.451Z,90.70
2018-08-03T18:05:12.419Z,91.00
2018-08-03T18:07:42.421Z,91.10
2018-08-03T18:10:17.255Z,91.40
2018-08-03T18:12:53.168Z,91.60
2018-08-03T18:15:26.699Z,91.80
2018-08-03T18:18:02.009Z,91.90
2018-08-03T18:20:35.157Z,92.10
2018-08-03T18:23:09.762Z,92.50
2018-08-03T18:25:41.998Z,92.90
2018-08-03T18:28:21.717Z,93.10
2018-08-03T18:30:59.528Z,93.20
2018-08-03T18:33:40.794Z,93.50
2018-08-03T18:36:21.652Z,93.60
2018-08-03T18:38:59.793Z,93.90
2018-08-03T18:41:39.916Z,94.20
2018-08-03T18:44:18.424Z,94.30
2018-08-03T18:46:54.185Z,94.50
2018-08-03T18:49:30.679Z,94.90
2018-08-03T18:52:09.079Z,95.00
2018-08-03T18:54:49.349Z,95.30
2018-08-03T18:57:21.821Z,95.60
2018-08-03T18:59:54.535Z,95.90
2018-08-03T19:02:26.597Z,96.40
2018-08-03T19:04:59.499Z,96.80
2018-08-03T19:10:02.632Z,97.50
2018-08-03T19:17:40.033Z,98.90
2018-08-03T19:20:11.725Z,99.30
2018-08-03T19:22:44.817Z,99.80
2018-08-03T19:25:24.224Z,99.90
2018-08-03T19:27:57.136Z,99.90
2018-08-03T19:30:28.550Z,99.90
2018-08-03T19:33:00.398Z,99.90
2018-08-03T19:35:37.781Z,99.90
2018-08-03T19:38:12.983Z,99.90
2018-08-03T19:40:43.095Z,99.90
2018-08-03T19:43:12.732Z,99.90
2018-08-03T19:45:42.272Z,99.90
2018-08-03T19:48:11.766Z,99.90
2018-08-03T19:50:41.493Z,99.90
2018-08-03T19:53:11.184Z,99.90
2018-08-03T19:55:40.652Z,99.90
2018-08-03T20:00:39.763Z,99.90
2018-08-03T20:05:38.697Z,99.90
2018-08-03T20:08:08.500Z,99.90
2018-08-03T20:10:38.214Z,99.90
2018-08-03T20:13:08.251Z,99.90
2018-08-03T20:15:37.838Z,99.90
2018-08-03T20:20:36.134Z,99.90
2018-08-03T20:23:05.593Z,99.90
2018-08-03T20:25:35.100Z,99.90
2018-08-03T20:28:08.206Z,99.90
2018-08-03T20:30:44.340Z,99.90
2018-08-03T20:33:18.216Z,99.90
2018-08-03T20:35:53.073Z,99.90
2018-08-03T20:38:23.363Z,99.90
2018-08-03T20:40:56.600Z,99.90
2018-08-03T20:43:31.029Z,99.90
2018-08-03T20:46:03.119Z,99.90
2018-08-03T20:48:39.572Z,99.90
2018-08-03T20:51:10.783Z,99.90
2018-08-03T20:53:43.776Z,99.90
2018-08-03T20:56:15.105Z,99.90
2018-08-03T20:58:45.748Z,99.90
2018-08-03T21:01:15.202Z,99.90
2018-08-03T21:03:44.902Z,99.90
2018-08-03T21:06:15.257Z,99.90
2018-08-03T21:08:45.122Z,99.90
2018-08-03T21:11:14.973Z,99.90
2018-08-03T21:13:44.631Z,99.90
2018-08-03T21:16:14.476Z,99.90
2018-08-03T21:21:14.056Z,99.90
2018-08-03T21:23:44.099Z,99.90
2018-08-03T21:26:13.562Z,99.90
2018-08-03T21:28:43.023Z,99.90
2018-08-03T21:31:12.573Z,99.90
2018-08-03T21:33:42.094Z,99.90
2018-08-03T21:36:11.552Z,99.90
2018-08-03T21:38:41.406Z,99.90
2018-08-03T21:41:10.852Z,99.90
2018-08-03T21:43:40.309Z,99.90
2018-08-03T21:46:10.121Z,99.90
2018-08-03T21:48:39.549Z,99.90
2018-08-03T21:51:09.797Z,99.90
2018-08-03T21:53:39.239Z,99.90
2018-08-03T21:58:38.172Z,99.90
2018-08-03T22:01:10.799Z,99.90
2018-08-03T22:03:40.167Z,99.90
2018-08-03T22:06:09.603Z,99.90
2018-08-03T22:08:39.975Z,99.90
2018-08-03T22:11:10.571Z,99.90
2018-08-03T22:13:40.058Z,99.90
2018-08-03T22:16:09.489Z,99.90
2018-08-03T22:18:38.930Z,99.90
2018-08-03T22:21:08.427Z,99.90
2018-08-03T22:23:37.827Z,99.90
2018-08-03T22:26:07.346Z,99.90
2018-08-03T22:28:36.831Z,99.90
2018-08-03T22:31:06.227Z,99.90
2018-08-03T22:33:36.174Z,99.90
2018-08-03T22:36:05.637Z,99.90
2018-08-03T22:38:35.145Z,99.90
2018-08-03T22:41:04.505Z,99.90
2018-08-03T22:43:35.526Z,99.90
2018-08-03T22:46:05.097Z,99.90
2018-08-03T22:48:34.523Z,99.90
2018-08-03T22:51:03.963Z,99.90
2018-08-03T22:53:33.382Z,99.90
2018-08-03T22:58:31.964Z,99.90
2018-08-03T23:01:01.349Z,99.90
2018-08-03T23:03:30.796Z,99.90
2018-08-03T23:06:00.204Z,99.90
2018-08-03T23:08:29.613Z,99.90
2018-08-03T23:10:59.149Z,99.90
2018-08-03T23:13:28.799Z,99.90
2018-08-03T23:15:58.264Z,99.90
2018-08-03T23:18:27.647Z,99.90
2018-08-03T23:20:57.049Z,99.90
2018-08-03T23:23:26.538Z,99.90
2018-08-03T23:25:56.139Z,99.90
2018-08-03T23:28:25.941Z,99.90
2018-08-03T23:30:55.300Z,99.90
2018-08-03T23:33:24.717Z,99.90
2018-08-03T23:35:54.835Z,99.90
2018-08-03T23:40:53.253Z,99.90
2018-08-03T23:43:22.741Z,99.90
2018-08-03T23:45:52.297Z,99.90
2018-08-03T23:48:21.713Z,99.90
2018-08-03T23:50:51.112Z,99.90
2018-08-03T23:53:20.631Z,99.90
2018-08-03T23:55:50.008Z,99.90
2018-08-03T23:58:19.438Z,99.90
